sensor_id;sensor_type;location;lat;lon;timestamp;P1;durP1;ratioP1;P2;durP2;ratioP2
43345;SDS011;28937;51.160;4.146;2022-10-17T00:01:01;7.85;;;4.75;;
43345;SDS011;28937;51.160;4.146;2022-10-17T00:03:27;6.20;;;4.63;;
43345;SDS011;28937;51.160;4.146;2022-10-17T00:05:53;5.93;;;4.90;;
43345;SDS011;28937;51.160;4.146;2022-10-17T00:08:18;7.03;;;4.60;;
43345;SDS011;28937;51.160;4.146;2022-10-17T00:10:44;8.23;;;5.05;;
43345;SDS011;28937;51.160;4.146;2022-10-17T00:13:19;5.00;;;4.60;;
43345;SDS011;28937;51.160;4.146;2022-10-17T00:15:44;6.75;;;4.55;;
43345;SDS011;28937;51.160;4.146;2022-10-17T00:18:10;6.53;;;5.35;;
43345;SDS011;28937;51.160;4.146;2022-10-17T00:20:36;6.03;;;5.13;;
43345;SDS011;28937;51.160;4.146;2022-10-17T00:23:01;4.95;;;4.32;;
43345;SDS011;28937;51.160;4.146;2022-10-17T00:25:27;9.90;;;5.05;;
43345;SDS011;28937;51.160;4.146;2022-10-17T00:27:52;5.80;;;5.20;;
43345;SDS011;28937;51.160;4.146;2022-10-17T00:30:18;5.82;;;4.80;;
43345;SDS011;28937;51.160;4.146;2022-10-17T00:32:43;6.88;;;5.10;;
43345;SDS011;28937;51.160;4.146;2022-10-17T00:35:09;7.35;;;5.50;;
43345;SDS011;28937;51.160;4.146;2022-10-17T00:37:35;6.78;;;5.35;;
43345;SDS011;28937;51.160;4.146;2022-10-17T00:40:01;6.43;;;5.53;;
43345;SDS011;28937;51.160;4.146;2022-10-17T00:42:27;9.77;;;5.25;;
43345;SDS011;28937;51.160;4.146;2022-10-17T00:44:56;5.45;;;4.95;;
43345;SDS011;28937;51.160;4.146;2022-10-17T00:47:36;6.40;;;5.70;;
43345;SDS011;28937;51.160;4.146;2022-10-17T00:50:02;6.88;;;5.50;;
43345;SDS011;28937;51.160;4.146;2022-10-17T00:52:30;5.93;;;5.32;;
43345;SDS011;28937;51.160;4.146;2022-10-17T00:54:57;7.00;;;5.88;;
43345;SDS011;28937;51.160;4.146;2022-10-17T00:57:32;5.88;;;5.28;;
43345;SDS011;28937;51.160;4.146;2022-10-17T00:59:58;7.22;;;6.07;;
43345;SDS011;28937;51.160;4.146;2022-10-17T01:02:30;7.65;;;5.20;;
43345;SDS011;28937;51.160;4.146;2022-10-17T01:04:56;8.13;;;5.93;;
43345;SDS011;28937;51.160;4.146;2022-10-17T01:07:23;6.43;;;5.53;;
43345;SDS011;28937;51.160;4.146;2022-10-17T01:09:49;6.00;;;5.38;;
43345;SDS011;28937;51.160;4.146;2022-10-17T01:29:21;8.20;;;5.47;;
43345;SDS011;28937;51.160;4.146;2022-10-17T01:32:13;7.63;;;6.00;;
43345;SDS011;28937;51.160;4.146;2022-10-17T01:34:54;8.20;;;5.45;;
43345;SDS011;28937;51.160;4.146;2022-10-17T01:39:53;6.57;;;5.60;;
43345;SDS011;28937;51.160;4.146;2022-10-17T01:42:42;6.72;;;5.90;;
43345;SDS011;28937;51.160;4.146;2022-10-17T01:45:15;7.45;;;5.35;;
43345;SDS011;28937;51.160;4.146;2022-10-17T01:47:43;6.65;;;5.57;;
43345;SDS011;28937;51.160;4.146;2022-10-17T01:50:15;6.40;;;5.70;;
43345;SDS011;28937;51.160;4.146;2022-10-17T01:52:52;6.35;;;5.70;;
43345;SDS011;28937;51.160;4.146;2022-10-17T01:55:27;6.13;;;5.53;;
43345;SDS011;28937;51.160;4.146;2022-10-17T01:58:00;7.40;;;6.30;;
43345;SDS011;28937;51.160;4.146;2022-10-17T02:00:33;6.85;;;5.82;;
43345;SDS011;28937;51.160;4.146;2022-10-17T02:03:02;7.65;;;5.55;;
43345;SDS011;28937;51.160;4.146;2022-10-17T02:05:32;8.90;;;6.05;;
43345;SDS011;28937;51.160;4.146;2022-10-17T02:08:02;6.10;;;5.50;;
43345;SDS011;28937;51.160;4.146;2022-10-17T02:10:43;9.50;;;5.85;;
43345;SDS011;28937;51.160;4.146;2022-10-17T02:13:45;8.52;;;5.75;;
43345;SDS011;28937;51.160;4.146;2022-10-17T02:27:14;6.15;;;5.30;;
43345;SDS011;28937;51.160;4.146;2022-10-17T02:29:48;7.13;;;5.72;;
43345;SDS011;28937;51.160;4.146;2022-10-17T02:32:23;6.47;;;5.85;;
43345;SDS011;28937;51.160;4.146;2022-10-17T02:37:21;6.93;;;5.50;;
43345;SDS011;28937;51.160;4.146;2022-10-17T02:39:49;8.35;;;6.45;;
43345;SDS011;28937;51.160;4.146;2022-10-17T02:42:15;8.13;;;6.28;;
43345;SDS011;28937;51.160;4.146;2022-10-17T02:44:42;6.38;;;5.68;;
43345;SDS011;28937;51.160;4.146;2022-10-17T02:47:56;9.15;;;6.03;;
43345;SDS011;28937;51.160;4.146;2022-10-17T02:50:12;6.40;;;5.72;;
43345;SDS011;28937;51.160;4.146;2022-10-17T02:55:19;7.70;;;6.63;;
43345;SDS011;28937;51.160;4.146;2022-10-17T02:58:02;6.45;;;5.75;;
43345;SDS011;28937;51.160;4.146;2022-10-17T03:00:34;7.30;;;6.13;;
43345;SDS011;28937;51.160;4.146;2022-10-17T03:03:16;6.47;;;5.32;;
43345;SDS011;28937;51.160;4.146;2022-10-17T03:05:43;6.30;;;5.68;;
43345;SDS011;28937;51.160;4.146;2022-10-17T03:08:09;8.68;;;6.45;;
43345;SDS011;28937;51.160;4.146;2022-10-17T03:10:35;8.07;;;6.00;;
43345;SDS011;28937;51.160;4.146;2022-10-17T03:13:01;9.43;;;5.90;;
43345;SDS011;28937;51.160;4.146;2022-10-17T03:15:26;7.60;;;5.40;;
43345;SDS011;28937;51.160;4.146;2022-10-17T03:17:52;11.02;;;6.45;;
43345;SDS011;28937;51.160;4.146;2022-10-17T03:20:19;7.57;;;5.97;;
43345;SDS011;28937;51.160;4.146;2022-10-17T03:22:45;9.52;;;6.00;;
43345;SDS011;28937;51.160;4.146;2022-10-17T03:25:10;6.75;;;5.40;;
43345;SDS011;28937;51.160;4.146;2022-10-17T03:27:36;7.05;;;6.10;;
43345;SDS011;28937;51.160;4.146;2022-10-17T03:30:01;7.22;;;6.05;;
43345;SDS011;28937;51.160;4.146;2022-10-17T03:32:27;6.90;;;5.63;;
43345;SDS011;28937;51.160;4.146;2022-10-17T03:34:53;8.80;;;5.72;;
43345;SDS011;28937;51.160;4.146;2022-10-17T03:37:18;7.97;;;6.30;;
43345;SDS011;28937;51.160;4.146;2022-10-17T03:39:44;8.20;;;6.05;;
43345;SDS011;28937;51.160;4.146;2022-10-17T03:42:09;7.38;;;5.20;;
43345;SDS011;28937;51.160;4.146;2022-10-17T03:44:35;8.95;;;5.10;;
43345;SDS011;28937;51.160;4.146;2022-10-17T03:47:00;7.07;;;6.10;;
43345;SDS011;28937;51.160;4.146;2022-10-17T03:49:26;5.82;;;4.82;;
43345;SDS011;28937;51.160;4.146;2022-10-17T03:51:51;7.85;;;5.85;;
43345;SDS011;28937;51.160;4.146;2022-10-17T03:54:17;10.43;;;5.65;;
43345;SDS011;28937;51.160;4.146;2022-10-17T03:56:42;7.95;;;5.63;;
43345;SDS011;28937;51.160;4.146;2022-10-17T03:59:10;5.82;;;4.88;;
43345;SDS011;28937;51.160;4.146;2022-10-17T04:01:38;7.85;;;5.38;;
43345;SDS011;28937;51.160;4.146;2022-10-17T04:04:04;8.20;;;5.97;;
43345;SDS011;28937;51.160;4.146;2022-10-17T04:06:30;6.13;;;5.50;;
43345;SDS011;28937;51.160;4.146;2022-10-17T04:08:56;7.28;;;4.78;;
43345;SDS011;28937;51.160;4.146;2022-10-17T04:11:21;7.57;;;5.82;;
43345;SDS011;28937;51.160;4.146;2022-10-17T04:13:51;9.13;;;5.40;;
43345;SDS011;28937;51.160;4.146;2022-10-17T04:16:18;6.93;;;6.25;;
43345;SDS011;28937;51.160;4.146;2022-10-17T04:18:44;7.35;;;5.57;;
43345;SDS011;28937;51.160;4.146;2022-10-17T04:21:09;8.13;;;5.40;;
43345;SDS011;28937;51.160;4.146;2022-10-17T04:23:36;9.52;;;5.82;;
43345;SDS011;28937;51.160;4.146;2022-10-17T04:26:02;10.32;;;5.93;;
43345;SDS011;28937;51.160;4.146;2022-10-17T04:28:29;5.95;;;5.38;;
43345;SDS011;28937;51.160;4.146;2022-10-17T04:31:05;8.63;;;6.03;;
43345;SDS011;28937;51.160;4.146;2022-10-17T04:33:32;6.25;;;5.55;;
43345;SDS011;28937;51.160;4.146;2022-10-17T04:35:59;8.80;;;5.85;;
43345;SDS011;28937;51.160;4.146;2022-10-17T04:38:26;6.30;;;4.90;;
43345;SDS011;28937;51.160;4.146;2022-10-17T04:40:52;8.25;;;5.47;;
43345;SDS011;28937;51.160;4.146;2022-10-17T04:43:18;6.60;;;5.55;;
43345;SDS011;28937;51.160;4.146;2022-10-17T04:45:44;7.03;;;5.18;;
43345;SDS011;28937;51.160;4.146;2022-10-17T04:48:09;8.80;;;5.03;;
43345;SDS011;28937;51.160;4.146;2022-10-17T04:50:35;9.52;;;5.25;;
43345;SDS011;28937;51.160;4.146;2022-10-17T04:53:00;6.10;;;4.60;;
43345;SDS011;28937;51.160;4.146;2022-10-17T04:55:26;6.07;;;5.47;;
43345;SDS011;28937;51.160;4.146;2022-10-17T04:57:51;7.05;;;5.28;;
43345;SDS011;28937;51.160;4.146;2022-10-17T05:00:17;4.13;;;3.70;;
43345;SDS011;28937;51.160;4.146;2022-10-17T05:02:43;5.65;;;4.60;;
43345;SDS011;28937;51.160;4.146;2022-10-17T05:05:08;7.43;;;4.72;;
43345;SDS011;28937;51.160;4.146;2022-10-17T05:07:34;5.88;;;5.25;;
43345;SDS011;28937;51.160;4.146;2022-10-17T05:09:59;6.10;;;5.50;;
43345;SDS011;28937;51.160;4.146;2022-10-17T05:12:25;14.25;;;6.22;;
43345;SDS011;28937;51.160;4.146;2022-10-17T05:14:50;9.93;;;5.88;;
43345;SDS011;28937;51.160;4.146;2022-10-17T05:17:16;13.02;;;6.43;;
43345;SDS011;28937;51.160;4.146;2022-10-17T05:19:42;6.97;;;6.00;;
43345;SDS011;28937;51.160;4.146;2022-10-17T05:22:07;8.77;;;6.45;;
43345;SDS011;28937;51.160;4.146;2022-10-17T05:24:33;9.88;;;6.10;;
43345;SDS011;28937;51.160;4.146;2022-10-17T05:26:58;8.60;;;5.60;;
43345;SDS011;28937;51.160;4.146;2022-10-17T05:29:24;6.00;;;5.28;;
43345;SDS011;28937;51.160;4.146;2022-10-17T05:31:50;6.18;;;5.05;;
43345;SDS011;28937;51.160;4.146;2022-10-17T05:34:15;6.07;;;4.65;;
43345;SDS011;28937;51.160;4.146;2022-10-17T05:36:41;8.70;;;5.80;;
43345;SDS011;28937;51.160;4.146;2022-10-17T05:39:06;6.90;;;5.00;;
43345;SDS011;28937;51.160;4.146;2022-10-17T05:41:32;7.45;;;5.38;;
43345;SDS011;28937;51.160;4.146;2022-10-17T05:43:58;9.32;;;5.40;;
43345;SDS011;28937;51.160;4.146;2022-10-17T05:46:24;6.60;;;5.38;;
43345;SDS011;28937;51.160;4.146;2022-10-17T05:48:49;7.80;;;5.72;;
43345;SDS011;28937;51.160;4.146;2022-10-17T05:51:15;9.05;;;5.18;;
43345;SDS011;28937;51.160;4.146;2022-10-17T05:53:40;6.47;;;5.15;;
43345;SDS011;28937;51.160;4.146;2022-10-17T05:56:08;8.38;;;5.07;;
43345;SDS011;28937;51.160;4.146;2022-10-17T05:58:35;3.80;;;3.40;;
43345;SDS011;28937;51.160;4.146;2022-10-17T06:01:05;4.75;;;3.67;;
43345;SDS011;28937;51.160;4.146;2022-10-17T06:03:31;7.05;;;4.97;;
43345;SDS011;28937;51.160;4.146;2022-10-17T06:06:04;6.32;;;5.22;;
43345;SDS011;28937;51.160;4.146;2022-10-17T06:08:31;7.00;;;5.13;;
43345;SDS011;28937;51.160;4.146;2022-10-17T06:10:57;7.38;;;4.85;;
43345;SDS011;28937;51.160;4.146;2022-10-17T06:13:22;4.55;;;4.20;;
43345;SDS011;28937;51.160;4.146;2022-10-17T06:15:48;8.73;;;4.07;;
43345;SDS011;28937;51.160;4.146;2022-10-17T06:18:13;9.63;;;4.80;;
43345;SDS011;28937;51.160;4.146;2022-10-17T06:20:39;10.50;;;5.15;;
43345;SDS011;28937;51.160;4.146;2022-10-17T06:23:05;6.47;;;4.60;;
43345;SDS011;28937;51.160;4.146;2022-10-17T06:25:31;7.32;;;4.72;;
43345;SDS011;28937;51.160;4.146;2022-10-17T06:27:57;7.00;;;4.85;;
43345;SDS011;28937;51.160;4.146;2022-10-17T06:30:23;6.65;;;4.35;;
43345;SDS011;28937;51.160;4.146;2022-10-17T06:32:50;8.77;;;4.68;;
43345;SDS011;28937;51.160;4.146;2022-10-17T06:35:16;8.00;;;5.50;;
43345;SDS011;28937;51.160;4.146;2022-10-17T06:37:42;7.93;;;5.07;;
43345;SDS011;28937;51.160;4.146;2022-10-17T06:40:07;8.75;;;5.60;;
43345;SDS011;28937;51.160;4.146;2022-10-17T06:42:35;7.18;;;4.97;;
43345;SDS011;28937;51.160;4.146;2022-10-17T06:45:01;7.65;;;5.38;;
43345;SDS011;28937;51.160;4.146;2022-10-17T06:47:27;8.88;;;5.25;;
43345;SDS011;28937;51.160;4.146;2022-10-17T06:49:53;7.63;;;5.10;;
43345;SDS011;28937;51.160;4.146;2022-10-17T06:52:18;5.57;;;4.90;;
43345;SDS011;28937;51.160;4.146;2022-10-17T06:54:44;8.02;;;5.63;;
43345;SDS011;28937;51.160;4.146;2022-10-17T06:57:09;5.85;;;5.18;;
43345;SDS011;28937;51.160;4.146;2022-10-17T06:59:35;8.80;;;5.18;;
43345;SDS011;28937;51.160;4.146;2022-10-17T07:02:00;5.20;;;4.50;;
43345;SDS011;28937;51.160;4.146;2022-10-17T07:04:26;10.55;;;5.50;;
43345;SDS011;28937;51.160;4.146;2022-10-17T07:06:52;9.82;;;4.93;;
43345;SDS011;28937;51.160;4.146;2022-10-17T07:09:18;7.32;;;4.93;;
43345;SDS011;28937;51.160;4.146;2022-10-17T07:11:44;7.18;;;5.07;;
43345;SDS011;28937;51.160;4.146;2022-10-17T07:14:09;6.75;;;5.57;;
43345;SDS011;28937;51.160;4.146;2022-10-17T07:16:35;8.70;;;5.20;;
43345;SDS011;28937;51.160;4.146;2022-10-17T07:19:01;9.27;;;5.68;;
43345;SDS011;28937;51.160;4.146;2022-10-17T07:21:27;7.55;;;5.57;;
43345;SDS011;28937;51.160;4.146;2022-10-17T07:23:52;8.60;;;4.95;;
43345;SDS011;28937;51.160;4.146;2022-10-17T07:26:18;9.38;;;4.63;;
43345;SDS011;28937;51.160;4.146;2022-10-17T07:28:45;8.43;;;4.78;;
43345;SDS011;28937;51.160;4.146;2022-10-17T07:31:13;6.22;;;4.43;;
43345;SDS011;28937;51.160;4.146;2022-10-17T07:33:41;9.18;;;5.78;;
43345;SDS011;28937;51.160;4.146;2022-10-17T07:36:08;5.25;;;4.75;;
43345;SDS011;28937;51.160;4.146;2022-10-17T07:38:33;7.38;;;5.15;;
43345;SDS011;28937;51.160;4.146;2022-10-17T07:41:01;6.43;;;4.75;;
43345;SDS011;28937;51.160;4.146;2022-10-17T07:43:28;7.03;;;5.22;;
43345;SDS011;28937;51.160;4.146;2022-10-17T07:45:54;8.02;;;4.65;;
43345;SDS011;28937;51.160;4.146;2022-10-17T07:48:20;7.20;;;5.22;;
43345;SDS011;28937;51.160;4.146;2022-10-17T07:50:47;6.28;;;4.78;;
43345;SDS011;28937;51.160;4.146;2022-10-17T07:53:13;9.20;;;5.13;;
43345;SDS011;28937;51.160;4.146;2022-10-17T07:55:39;9.10;;;5.07;;
43345;SDS011;28937;51.160;4.146;2022-10-17T07:58:06;6.32;;;4.00;;
43345;SDS011;28937;51.160;4.146;2022-10-17T08:00:33;5.60;;;4.07;;
43345;SDS011;28937;51.160;4.146;2022-10-17T08:02:59;4.75;;;4.15;;
43345;SDS011;28937;51.160;4.146;2022-10-17T08:05:24;7.88;;;4.65;;
43345;SDS011;28937;51.160;4.146;2022-10-17T08:07:50;7.88;;;4.55;;
43345;SDS011;28937;51.160;4.146;2022-10-17T08:10:16;6.55;;;3.60;;
43345;SDS011;28937;51.160;4.146;2022-10-17T08:12:41;5.97;;;4.47;;
43345;SDS011;28937;51.160;4.146;2022-10-17T08:15:08;4.53;;;3.63;;
43345;SDS011;28937;51.160;4.146;2022-10-17T08:17:35;7.60;;;4.18;;
43345;SDS011;28937;51.160;4.146;2022-10-17T08:20:02;5.28;;;4.40;;
43345;SDS011;28937;51.160;4.146;2022-10-17T08:22:28;4.45;;;3.42;;
43345;SDS011;28937;51.160;4.146;2022-10-17T08:24:54;7.25;;;5.95;;
43345;SDS011;28937;51.160;4.146;2022-10-17T08:27:19;8.80;;;5.03;;
43345;SDS011;28937;51.160;4.146;2022-10-17T08:29:48;8.07;;;5.43;;
43345;SDS011;28937;51.160;4.146;2022-10-17T08:32:18;7.85;;;5.40;;
43345;SDS011;28937;51.160;4.146;2022-10-17T08:34:44;6.93;;;5.57;;
43345;SDS011;28937;51.160;4.146;2022-10-17T08:37:09;6.57;;;4.43;;
43345;SDS011;28937;51.160;4.146;2022-10-17T08:39:38;5.60;;;4.85;;
43345;SDS011;28937;51.160;4.146;2022-10-17T08:47:59;5.88;;;5.13;;
43345;SDS011;28937;51.160;4.146;2022-10-17T08:50:37;8.75;;;5.78;;
43345;SDS011;28937;51.160;4.146;2022-10-17T08:53:10;7.65;;;5.40;;
43345;SDS011;28937;51.160;4.146;2022-10-17T08:55:50;6.03;;;4.47;;
43345;SDS011;28937;51.160;4.146;2022-10-17T08:58:21;6.43;;;4.13;;
43345;SDS011;28937;51.160;4.146;2022-10-17T09:01:07;8.88;;;4.90;;
43345;SDS011;28937;51.160;4.146;2022-10-17T09:03:50;7.35;;;5.43;;
43345;SDS011;28937;51.160;4.146;2022-10-17T09:06:33;5.75;;;4.00;;
43345;SDS011;28937;51.160;4.146;2022-10-17T09:09:06;6.75;;;3.85;;
43345;SDS011;28937;51.160;4.146;2022-10-17T09:11:56;4.55;;;3.25;;
43345;SDS011;28937;51.160;4.146;2022-10-17T09:14:50;5.35;;;3.53;;
43345;SDS011;28937;51.160;4.146;2022-10-17T09:22:41;6.15;;;3.95;;
43345;SDS011;28937;51.160;4.146;2022-10-17T09:25:12;7.35;;;4.43;;
43345;SDS011;28937;51.160;4.146;2022-10-17T09:27:42;6.13;;;4.20;;
43345;SDS011;28937;51.160;4.146;2022-10-17T09:32:52;5.72;;;3.65;;
43345;SDS011;28937;51.160;4.146;2022-10-17T09:35:17;7.28;;;4.05;;
43345;SDS011;28937;51.160;4.146;2022-10-17T09:37:45;5.75;;;3.80;;
43345;SDS011;28937;51.160;4.146;2022-10-17T09:40:20;6.15;;;4.00;;
43345;SDS011;28937;51.160;4.146;2022-10-17T09:42:56;5.38;;;4.13;;
43345;SDS011;28937;51.160;4.146;2022-10-17T09:45:22;4.70;;;4.28;;
43345;SDS011;28937;51.160;4.146;2022-10-17T09:47:54;6.20;;;4.72;;
43345;SDS011;28937;51.160;4.146;2022-10-17T09:50:41;5.50;;;4.55;;
43345;SDS011;28937;51.160;4.146;2022-10-17T09:53:11;9.45;;;6.57;;
43345;SDS011;28937;51.160;4.146;2022-10-17T09:55:51;9.93;;;8.43;;
43345;SDS011;28937;51.160;4.146;2022-10-17T09:58:20;20.77;;;12.07;;
43345;SDS011;28937;51.160;4.146;2022-10-17T10:00:47;15.85;;;10.32;;
43345;SDS011;28937;51.160;4.146;2022-10-17T10:03:23;13.40;;;7.95;;
43345;SDS011;28937;51.160;4.146;2022-10-17T10:08:48;9.07;;;6.22;;
43345;SDS011;28937;51.160;4.146;2022-10-17T10:11:22;10.32;;;6.55;;
43345;SDS011;28937;51.160;4.146;2022-10-17T10:13:50;10.18;;;7.53;;
43345;SDS011;28937;51.160;4.146;2022-10-17T10:18:42;12.20;;;7.68;;
43345;SDS011;28937;51.160;4.146;2022-10-17T10:21:09;13.57;;;8.30;;
43345;SDS011;28937;51.160;4.146;2022-10-17T10:23:43;11.77;;;7.35;;
43345;SDS011;28937;51.160;4.146;2022-10-17T10:26:26;10.07;;;7.20;;
43345;SDS011;28937;51.160;4.146;2022-10-17T10:28:57;10.88;;;6.25;;
43345;SDS011;28937;51.160;4.146;2022-10-17T10:31:38;7.72;;;5.25;;
43345;SDS011;28937;51.160;4.146;2022-10-17T10:37:04;7.88;;;6.20;;
43345;SDS011;28937;51.160;4.146;2022-10-17T10:39:41;11.13;;;7.57;;
43345;SDS011;28937;51.160;4.146;2022-10-17T10:42:21;8.00;;;5.65;;
43345;SDS011;28937;51.160;4.146;2022-10-17T10:44:47;10.23;;;5.82;;
43345;SDS011;28937;51.160;4.146;2022-10-17T10:49:44;9.25;;;5.78;;
43345;SDS011;28937;51.160;4.146;2022-10-17T10:52:23;6.80;;;5.70;;
43345;SDS011;28937;51.160;4.146;2022-10-17T10:55:14;6.25;;;5.65;;
43345;SDS011;28937;51.160;4.146;2022-10-17T10:57:40;6.93;;;5.78;;
43345;SDS011;28937;51.160;4.146;2022-10-17T11:00:14;6.97;;;5.72;;
43345;SDS011;28937;51.160;4.146;2022-10-17T11:05:23;7.20;;;4.82;;
43345;SDS011;28937;51.160;4.146;2022-10-17T11:10:58;6.90;;;5.03;;
43345;SDS011;28937;51.160;4.146;2022-10-17T11:13:51;6.75;;;5.85;;
43345;SDS011;28937;51.160;4.146;2022-10-17T11:16:33;8.23;;;4.25;;
43345;SDS011;28937;51.160;4.146;2022-10-17T11:19:07;7.70;;;5.07;;
43345;SDS011;28937;51.160;4.146;2022-10-17T11:21:42;13.00;;;5.32;;
43345;SDS011;28937;51.160;4.146;2022-10-17T11:24:24;6.63;;;4.88;;
43345;SDS011;28937;51.160;4.146;2022-10-17T11:26:55;7.93;;;4.80;;
43345;SDS011;28937;51.160;4.146;2022-10-17T11:29:29;8.55;;;6.20;;
43345;SDS011;28937;51.160;4.146;2022-10-17T11:31:57;6.05;;;4.88;;
43345;SDS011;28937;51.160;4.146;2022-10-17T11:34:59;7.00;;;5.35;;
43345;SDS011;28937;51.160;4.146;2022-10-17T11:38:06;7.78;;;5.45;;
43345;SDS011;28937;51.160;4.146;2022-10-17T11:40:44;8.70;;;5.22;;
43345;SDS011;28937;51.160;4.146;2022-10-17T11:43:19;7.40;;;5.00;;
43345;SDS011;28937;51.160;4.146;2022-10-17T11:45:59;6.00;;;4.68;;
43345;SDS011;28937;51.160;4.146;2022-10-17T11:48:40;7.57;;;5.18;;
43345;SDS011;28937;51.160;4.146;2022-10-17T11:51:12;7.50;;;4.93;;
43345;SDS011;28937;51.160;4.146;2022-10-17T11:53:46;6.85;;;5.63;;
43345;SDS011;28937;51.160;4.146;2022-10-17T11:56:25;6.45;;;5.25;;
43345;SDS011;28937;51.160;4.146;2022-10-17T12:01:50;7.63;;;5.03;;
43345;SDS011;28937;51.160;4.146;2022-10-17T12:12:22;7.50;;;4.68;;
43345;SDS011;28937;51.160;4.146;2022-10-17T12:14:50;8.38;;;4.60;;
43345;SDS011;28937;51.160;4.146;2022-10-17T12:22:54;8.13;;;5.00;;
43345;SDS011;28937;51.160;4.146;2022-10-17T12:25:27;7.93;;;5.55;;
43345;SDS011;28937;51.160;4.146;2022-10-17T12:30:48;8.68;;;4.95;;
43345;SDS011;28937;51.160;4.146;2022-10-17T12:35:47;7.25;;;5.30;;
43345;SDS011;28937;51.160;4.146;2022-10-17T12:38:24;6.93;;;5.38;;
43345;SDS011;28937;51.160;4.146;2022-10-17T12:40:52;6.47;;;5.50;;
43345;SDS011;28937;51.160;4.146;2022-10-17T12:45:54;6.80;;;5.32;;
43345;SDS011;28937;51.160;4.146;2022-10-17T12:51:18;13.57;;;8.35;;
43345;SDS011;28937;51.160;4.146;2022-10-17T12:56:17;8.57;;;5.55;;
43345;SDS011;28937;51.160;4.146;2022-10-17T12:58:45;7.38;;;5.90;;
43345;SDS011;28937;51.160;4.146;2022-10-17T13:01:21;7.95;;;5.65;;
43345;SDS011;28937;51.160;4.146;2022-10-17T13:03:54;11.18;;;5.85;;
43345;SDS011;28937;51.160;4.146;2022-10-17T13:06:22;10.38;;;5.40;;
43345;SDS011;28937;51.160;4.146;2022-10-17T13:08:54;7.65;;;5.70;;
43345;SDS011;28937;51.160;4.146;2022-10-17T13:11:24;6.68;;;5.93;;
43345;SDS011;28937;51.160;4.146;2022-10-17T13:13:53;6.32;;;5.28;;
43345;SDS011;28937;51.160;4.146;2022-10-17T13:16:35;7.35;;;5.45;;
43345;SDS011;28937;51.160;4.146;2022-10-17T13:19:03;8.50;;;4.82;;
43345;SDS011;28937;51.160;4.146;2022-10-17T13:21:36;6.25;;;5.15;;
43345;SDS011;28937;51.160;4.146;2022-10-17T13:24:18;8.73;;;5.45;;
43345;SDS011;28937;51.160;4.146;2022-10-17T13:26:48;7.05;;;4.88;;
43345;SDS011;28937;51.160;4.146;2022-10-17T13:29:14;6.30;;;4.93;;
43345;SDS011;28937;51.160;4.146;2022-10-17T13:31:41;6.90;;;5.05;;
43345;SDS011;28937;51.160;4.146;2022-10-17T13:34:15;7.35;;;4.88;;
43345;SDS011;28937;51.160;4.146;2022-10-17T13:36:46;8.05;;;5.13;;
43345;SDS011;28937;51.160;4.146;2022-10-17T13:39:16;9.40;;;4.60;;
43345;SDS011;28937;51.160;4.146;2022-10-17T13:41:43;5.40;;;4.90;;
43345;SDS011;28937;51.160;4.146;2022-10-17T13:44:10;9.00;;;4.63;;
43345;SDS011;28937;51.160;4.146;2022-10-17T13:46:51;5.00;;;3.65;;
43345;SDS011;28937;51.160;4.146;2022-10-17T13:51:47;6.07;;;3.97;;
43345;SDS011;28937;51.160;4.146;2022-10-17T13:56:58;6.68;;;4.13;;
43345;SDS011;28937;51.160;4.146;2022-10-17T13:59:26;7.07;;;4.38;;
43345;SDS011;28937;51.160;4.146;2022-10-17T14:01:57;9.43;;;4.60;;
43345;SDS011;28937;51.160;4.146;2022-10-17T14:04:26;5.40;;;3.80;;
43345;SDS011;28937;51.160;4.146;2022-10-17T14:06:52;4.97;;;4.03;;
43345;SDS011;28937;51.160;4.146;2022-10-17T14:09:24;5.60;;;3.83;;
43345;SDS011;28937;51.160;4.146;2022-10-17T14:12:00;5.68;;;4.45;;
43345;SDS011;28937;51.160;4.146;2022-10-17T14:14:40;6.88;;;4.43;;
43345;SDS011;28937;51.160;4.146;2022-10-17T14:17:22;5.70;;;4.13;;
43345;SDS011;28937;51.160;4.146;2022-10-17T14:19:53;5.32;;;4.20;;
43345;SDS011;28937;51.160;4.146;2022-10-17T14:24:46;5.55;;;4.32;;
43345;SDS011;28937;51.160;4.146;2022-10-17T14:27:24;5.97;;;4.57;;
43345;SDS011;28937;51.160;4.146;2022-10-17T14:29:54;8.55;;;4.50;;
43345;SDS011;28937;51.160;4.146;2022-10-17T14:32:24;5.35;;;3.92;;
43345;SDS011;28937;51.160;4.146;2022-10-17T14:34:52;7.57;;;4.78;;
43345;SDS011;28937;51.160;4.146;2022-10-17T14:40:30;7.82;;;4.03;;
43345;SDS011;28937;51.160;4.146;2022-10-17T14:42:57;7.78;;;4.32;;
43345;SDS011;28937;51.160;4.146;2022-10-17T14:47:53;5.22;;;2.83;;
43345;SDS011;28937;51.160;4.146;2022-10-17T14:50:24;7.47;;;4.50;;
43345;SDS011;28937;51.160;4.146;2022-10-17T14:55:31;8.18;;;5.10;;
43345;SDS011;28937;51.160;4.146;2022-10-17T14:57:58;11.23;;;6.32;;
43345;SDS011;28937;51.160;4.146;2022-10-17T15:00:25;12.88;;;6.28;;
43345;SDS011;28937;51.160;4.146;2022-10-17T15:02:51;12.63;;;7.28;;
43345;SDS011;28937;51.160;4.146;2022-10-17T15:05:18;12.90;;;7.32;;
43345;SDS011;28937;51.160;4.146;2022-10-17T15:07:45;9.65;;;6.95;;
43345;SDS011;28937;51.160;4.146;2022-10-17T15:10:33;9.43;;;7.30;;
43345;SDS011;28937;51.160;4.146;2022-10-17T15:12:58;10.20;;;6.20;;
43345;SDS011;28937;51.160;4.146;2022-10-17T15:15:25;8.35;;;6.20;;
43345;SDS011;28937;51.160;4.146;2022-10-17T15:17:54;9.60;;;6.32;;
43345;SDS011;28937;51.160;4.146;2022-10-17T15:20:20;6.68;;;5.05;;
43345;SDS011;28937;51.160;4.146;2022-10-17T15:22:50;6.40;;;5.15;;
43345;SDS011;28937;51.160;4.146;2022-10-17T15:25:19;5.82;;;4.25;;
43345;SDS011;28937;51.160;4.146;2022-10-17T15:27:45;9.77;;;4.72;;
43345;SDS011;28937;51.160;4.146;2022-10-17T15:30:30;8.50;;;4.30;;
43345;SDS011;28937;51.160;4.146;2022-10-17T15:33:00;10.00;;;4.53;;
43345;SDS011;28937;51.160;4.146;2022-10-17T15:35:26;6.88;;;3.83;;
43345;SDS011;28937;51.160;4.146;2022-10-17T15:37:52;10.88;;;3.80;;
43345;SDS011;28937;51.160;4.146;2022-10-17T15:40:20;6.70;;;4.60;;
43345;SDS011;28937;51.160;4.146;2022-10-17T15:42:52;12.38;;;9.15;;
43345;SDS011;28937;51.160;4.146;2022-10-17T15:45:18;16.38;;;12.13;;
43345;SDS011;28937;51.160;4.146;2022-10-17T15:47:52;14.02;;;12.00;;
43345;SDS011;28937;51.160;4.146;2022-10-17T15:50:20;13.95;;;9.63;;
43345;SDS011;28937;51.160;4.146;2022-10-17T15:52:46;12.32;;;8.27;;
43345;SDS011;28937;51.160;4.146;2022-10-17T15:55:15;10.77;;;8.18;;
43345;SDS011;28937;51.160;4.146;2022-10-17T15:57:41;13.27;;;9.18;;
43345;SDS011;28937;51.160;4.146;2022-10-17T16:00:14;11.65;;;7.75;;
43345;SDS011;28937;51.160;4.146;2022-10-17T16:02:42;10.65;;;7.32;;
43345;SDS011;28937;51.160;4.146;2022-10-17T16:05:10;11.68;;;7.90;;
43345;SDS011;28937;51.160;4.146;2022-10-17T16:07:42;12.05;;;8.02;;
43345;SDS011;28937;51.160;4.146;2022-10-17T16:10:10;10.75;;;7.13;;
43345;SDS011;28937;51.160;4.146;2022-10-17T16:12:40;9.65;;;7.03;;
43345;SDS011;28937;51.160;4.146;2022-10-17T16:15:08;10.40;;;6.28;;
43345;SDS011;28937;51.160;4.146;2022-10-17T16:17:38;11.77;;;5.60;;
43345;SDS011;28937;51.160;4.146;2022-10-17T16:20:04;10.70;;;5.63;;
43345;SDS011;28937;51.160;4.146;2022-10-17T16:22:31;8.68;;;5.20;;
43345;SDS011;28937;51.160;4.146;2022-10-17T16:25:00;9.32;;;5.60;;
43345;SDS011;28937;51.160;4.146;2022-10-17T16:27:34;8.95;;;5.28;;
43345;SDS011;28937;51.160;4.146;2022-10-17T16:30:00;8.40;;;5.40;;
43345;SDS011;28937;51.160;4.146;2022-10-17T16:32:26;11.07;;;4.97;;
43345;SDS011;28937;51.160;4.146;2022-10-17T16:34:52;7.32;;;4.50;;
43345;SDS011;28937;51.160;4.146;2022-10-17T16:37:17;8.43;;;5.10;;
43345;SDS011;28937;51.160;4.146;2022-10-17T16:39:43;7.75;;;5.65;;
43345;SDS011;28937;51.160;4.146;2022-10-17T16:42:13;8.07;;;5.30;;
43345;SDS011;28937;51.160;4.146;2022-10-17T16:44:38;7.63;;;5.57;;
43345;SDS011;28937;51.160;4.146;2022-10-17T16:47:04;10.43;;;6.55;;
43345;SDS011;28937;51.160;4.146;2022-10-17T16:49:29;9.05;;;6.25;;
43345;SDS011;28937;51.160;4.146;2022-10-17T16:51:55;8.15;;;6.18;;